createdAt,value
2019-06-26T00:01:21.301Z,96189.3
2019-06-26T00:06:18.529Z,96114.1
2019-06-26T00:11:15.767Z,96213.8
2019-06-26T00:16:13.326Z,96218.2
2019-06-26T00:21:10.537Z,96214.4
2019-06-26T00:26:08.111Z,96225.3
2019-06-26T00:31:05.541Z,96227
2019-06-26T00:36:02.570Z,96217.4
2019-06-26T00:40:59.713Z,96213
2019-06-26T00:45:57.019Z,96167.7
2019-06-26T00:50:54.429Z,96227.1
2019-06-26T00:55:55.075Z,96218.6
2019-06-26T01:00:48.929Z,96196.8
2019-06-26T01:05:46.552Z,96232.6
2019-06-26T01:10:43.986Z,96220.3
2019-06-26T01:15:41.539Z,96209
2019-06-26T01:20:38.467Z,95462.6
2019-06-26T01:25:36.039Z,96229.8
2019-06-26T01:30:33.530Z,96232.5
2019-06-26T01:35:30.497Z,96227.8
2019-06-26T01:40:27.609Z,96225.1
2019-06-26T01:45:25.307Z,96232.6
2019-06-26T01:50:22.319Z,96236
2019-06-26T01:55:19.464Z,96239.4
2019-06-26T02:00:16.649Z,95789.4
2019-06-26T02:05:14.282Z,96238.1
2019-06-26T02:10:11.885Z,96232.8
2019-06-26T02:15:09.076Z,96236.5
2019-06-26T02:20:06.409Z,96215.8
2019-06-26T02:25:03.753Z,96228.6
2019-06-26T02:30:00.756Z,96243.7
2019-06-26T02:34:58.215Z,96245
2019-06-26T02:39:55.479Z,96248.1
2019-06-26T02:44:54.505Z,96244.1
2019-06-26T02:49:49.946Z,96248.5
2019-06-26T02:54:47.609Z,96241
2019-06-26T02:59:44.523Z,96241.8
2019-06-26T03:04:42.252Z,96294
2019-06-26T03:09:39.181Z,96243.5
2019-06-26T03:14:36.126Z,96252.3
2019-06-26T03:19:33.677Z,96245.2
2019-06-26T03:24:31.410Z,96240.6
2019-06-26T03:29:28.112Z,96245.4
2019-06-26T03:34:25.634Z,96239.9
2019-06-26T03:39:22.542Z,96236.3
2019-06-26T03:44:19.869Z,96227.9
2019-06-26T03:49:17.183Z,96233.7
2019-06-26T03:54:14.664Z,96238.3
2019-06-26T03:59:12.119Z,96240.8
2019-06-26T04:04:09.216Z,96240.5
2019-06-26T04:09:06.650Z,96252.2
2019-06-26T04:14:04.223Z,96258.8
2019-06-26T04:19:01.652Z,96256.1
2019-06-26T04:23:59.236Z,96228.1
2019-06-26T04:28:56.592Z,96255.2
2019-06-26T04:33:53.770Z,96259.1
2019-06-26T04:38:51.198Z,96265.2
2019-06-26T04:43:48.581Z,96262
2019-06-26T04:53:42.808Z,96272
2019-06-26T04:58:40.354Z,96269.7
2019-06-26T05:03:37.596Z,96275.9
2019-06-26T05:08:35.122Z,96315
2019-06-26T05:13:32.010Z,96280.2
2019-06-26T05:18:29.451Z,96284.6
2019-06-26T05:23:26.952Z,96286.2
2019-06-26T05:28:23.764Z,96293.2
2019-06-26T05:33:21.256Z,96298.2
2019-06-26T05:38:18.273Z,96299.8
2019-06-26T05:43:15.731Z,96302.4
2019-06-26T05:48:13.007Z,96296.3
2019-06-26T05:53:10.096Z,96278.7
2019-06-26T05:58:07.660Z,96310.2
2019-06-26T06:03:05.136Z,96312.4
2019-06-26T06:08:02.578Z,96305.3
2019-06-26T06:13:00.028Z,96306.4
2019-06-26T06:17:57.110Z,96308.2
2019-06-26T06:22:54.550Z,96213.4
2019-06-26T06:27:51.688Z,96359
2019-06-26T06:32:49.067Z,96234.8
2019-06-26T06:37:46.438Z,96314.8
2019-06-26T06:42:44.063Z,96311.2
2019-06-26T06:47:41.565Z,96322.8
2019-06-26T06:52:39.135Z,96330.7
2019-06-26T06:57:36.276Z,96317.8
2019-06-26T07:02:34.017Z,96317.9
2019-06-26T07:07:31.600Z,96326.4
2019-06-26T07:12:29.041Z,96324.3
2019-06-26T07:17:26.135Z,96371
2019-06-26T07:22:23.333Z,96394.4
2019-06-26T07:27:20.509Z,96268.6
2019-06-26T07:32:17.594Z,96264.4
2019-06-26T07:37:14.627Z,96343.1
2019-06-26T07:42:12.301Z,96342.6
2019-06-26T07:47:22.214Z,96336.3
2019-06-26T07:52:06.967Z,96263.5
2019-06-26T07:57:04.240Z,96119.1
2019-06-26T08:02:01.686Z,96345
2019-06-26T08:06:58.737Z,96352
2019-06-26T08:11:56.446Z,96340.9
2019-06-26T08:16:53.437Z,96340.1
2019-06-26T08:21:51.068Z,96276.2
2019-06-26T08:26:47.978Z,96268.8
2019-06-26T08:31:45.170Z,96264.3
2019-06-26T08:36:42.829Z,96350.3
2019-06-26T08:41:40.326Z,96279.6
2019-06-26T08:46:37.323Z,96414.2
2019-06-26T08:51:34.664Z,96417.9
2019-06-26T08:56:32.377Z,96366.8
2019-06-26T09:01:29.883Z,96365.2
2019-06-26T09:06:27.279Z,96364.3
2019-06-26T09:11:24.842Z,96369.7
2019-06-26T09:16:22.323Z,96362
2019-06-26T09:21:19.767Z,96365.9
2019-06-26T09:26:16.420Z,96358.1
2019-06-26T09:31:13.899Z,96354.3
2019-06-26T09:36:10.949Z,96344.3
2019-06-26T09:41:08.403Z,96353.4
2019-06-26T09:46:06.154Z,96320.6
2019-06-26T09:51:03.807Z,96343.9
2019-06-26T09:56:01.059Z,96335.1
2019-06-26T10:00:58.280Z,96340.3
2019-06-26T10:05:55.556Z,96340.3
2019-06-26T10:10:53.188Z,96333.3
2019-06-26T10:15:50.314Z,96329.6
2019-06-26T10:20:48.112Z,96318.1
2019-06-26T10:25:45.329Z,96322.7
2019-06-26T10:30:42.498Z,96315.1
2019-06-26T10:35:40.095Z,96308.4
2019-06-26T10:40:37.862Z,96300.8
2019-06-26T10:45:36.277Z,96298.3
2019-06-26T10:50:32.982Z,96294.8
2019-06-26T10:55:29.975Z,96292.6
2019-06-26T11:00:27.337Z,96291.4
2019-06-26T11:05:24.940Z,96291.7
2019-06-26T11:10:22.720Z,96285.5
2019-06-26T11:15:19.778Z,96278.6
2019-06-26T11:20:17.437Z,96280.3
2019-06-26T11:25:14.972Z,96280.6
2019-06-26T11:30:12.207Z,96277.6
2019-06-26T11:35:09.536Z,96276
2019-06-26T11:40:07.114Z,96275.2
2019-06-26T11:45:04.327Z,96274.5
2019-06-26T11:50:01.785Z,96266.8
2019-06-26T11:55:02.848Z,96265.4
2019-06-26T11:59:57.026Z,96256.4
2019-06-26T12:04:54.630Z,96254.1
2019-06-26T12:09:52.586Z,96253.2
2019-06-26T12:14:50.284Z,96243.7
2019-06-26T12:19:48.046Z,96244.8
2019-06-26T12:24:45.269Z,96224.6
2019-06-26T12:29:42.266Z,96220.6
2019-06-26T12:34:39.621Z,96227.3
2019-06-26T12:39:37.346Z,96222
2019-06-26T12:44:35.034Z,96037.6
2019-06-26T12:49:32.563Z,96225.4
2019-06-26T12:54:29.606Z,96221.4
2019-06-26T12:59:26.700Z,96216.6
2019-06-26T13:04:24.280Z,96203.8
2019-06-26T13:09:21.277Z,96190.9
2019-06-26T13:14:19.265Z,96117.9
2019-06-26T13:19:17.133Z,96189.2
2019-06-26T13:24:14.386Z,96182.5
2019-06-26T13:29:11.628Z,96180.4
2019-06-26T13:34:08.994Z,96107.9
2019-06-26T13:39:05.709Z,96181
2019-06-26T13:44:02.863Z,96183.3
2019-06-26T13:49:00.371Z,96166.9
2019-06-26T13:53:57.937Z,96174.6
2019-06-26T13:58:54.863Z,96167
2019-06-26T14:03:51.689Z,96164
2019-06-26T14:08:49.354Z,96165
2019-06-26T14:13:46.679Z,96160.5
2019-06-26T14:18:43.678Z,96156.3
2019-06-26T14:23:40.907Z,96150.9
2019-06-26T14:28:38.037Z,96146.9
2019-06-26T14:33:35.574Z,96141.9
2019-06-26T14:38:32.345Z,96134.8
2019-06-26T14:43:30.051Z,96134.2
2019-06-26T14:48:27.258Z,96140.6
2019-06-26T14:53:24.726Z,96150.8
2019-06-26T14:58:22.238Z,96138
2019-06-26T15:03:19.470Z,96067
2019-06-26T15:08:17.117Z,96124.2
2019-06-26T15:13:14.619Z,96129
2019-06-26T15:18:11.889Z,96128.2
2019-06-26T15:23:08.910Z,96134.4
2019-06-26T15:28:09.351Z,96130.8
2019-06-26T15:33:03.804Z,96032
2019-06-26T15:38:00.770Z,96127
2019-06-26T15:42:58.407Z,96128.3
2019-06-26T15:47:55.569Z,96127.2
2019-06-26T15:52:53.082Z,96127.1
2019-06-26T15:57:50.800Z,96124.6
2019-06-26T16:02:48.268Z,96126
2019-06-26T16:07:45.469Z,96140.1
2019-06-26T16:12:42.763Z,96150.1
2019-06-26T16:17:40.386Z,96159
2019-06-26T16:22:38.072Z,96157.9
2019-06-26T16:27:35.844Z,96159.2
2019-06-26T16:32:32.859Z,96145.6
2019-06-26T16:37:30.509Z,96144.4
2019-06-26T16:42:27.743Z,96135
2019-06-26T16:47:24.902Z,96132.5
2019-06-26T16:52:22.505Z,96133.4
2019-06-26T16:57:19.930Z,96139.3
2019-06-26T17:02:16.932Z,96119.9
2019-06-26T17:07:14.375Z,96133.5
2019-06-26T17:12:11.545Z,96125.6
2019-06-26T17:17:09.426Z,96045.2
2019-06-26T17:22:06.837Z,96121.5
2019-06-26T17:27:04.212Z,96112.3
2019-06-26T17:32:01.267Z,96099
2019-06-26T17:36:58.392Z,96094.2
2019-06-26T17:41:55.669Z,96102
2019-06-26T17:46:52.695Z,96098.4
2019-06-26T17:51:49.802Z,96100.2
2019-06-26T17:56:47.252Z,96107.8
2019-06-26T18:01:44.417Z,96108.2
2019-06-26T18:06:41.479Z,96111
2019-06-26T18:11:39.159Z,96111.8
2019-06-26T18:16:36.460Z,96047.9
2019-06-26T18:21:33.663Z,96048.8
2019-06-26T18:26:31.407Z,96120.9
2019-06-26T18:31:30.627Z,96135.6
2019-06-26T18:36:26.422Z,96142
2019-06-26T18:41:22.997Z,96147
2019-06-26T18:46:20.526Z,96149.3
2019-06-26T18:51:17.460Z,96159.4
2019-06-26T18:56:14.661Z,96167.9
2019-06-26T19:01:11.831Z,96161.9
2019-06-26T19:06:08.852Z,96158.1
2019-06-26T19:11:06.096Z,96165.1
2019-06-26T19:16:04.554Z,96157.2
2019-06-26T19:21:00.644Z,96134.4
2019-06-26T19:25:58.201Z,96165.5
2019-06-26T19:30:55.305Z,96133
2019-06-26T19:35:52.685Z,96161.9
2019-06-26T19:40:50.001Z,96159.4
2019-06-26T19:45:47.185Z,96158.3
2019-06-26T19:50:44.431Z,96160.8
2019-06-26T19:55:41.458Z,96158.7
2019-06-26T20:00:38.523Z,96162.2
2019-06-26T20:05:35.761Z,96168.9
2019-06-26T20:10:32.914Z,96168.7
2019-06-26T20:15:30.562Z,96174.9
2019-06-26T20:20:27.725Z,96149.9
2019-06-26T20:25:24.998Z,96173.8
2019-06-26T20:30:22.089Z,96179.4
2019-06-26T20:35:19.360Z,96175.1
2019-06-26T20:40:16.328Z,96170.1
2019-06-26T20:45:13.661Z,96168.8
2019-06-26T20:50:11.062Z,96091
2019-06-26T20:55:08.463Z,96164.8
2019-06-26T21:00:05.849Z,96159
2019-06-26T21:05:03.536Z,96165.5
2019-06-26T21:10:00.675Z,96162.7
2019-06-26T21:14:57.787Z,96155.5
2019-06-26T21:19:55.457Z,96156.9
2019-06-26T21:24:52.529Z,96154.7
2019-06-26T21:29:50.249Z,96147.8
2019-06-26T21:34:47.419Z,96149.4
2019-06-26T21:39:44.835Z,96149.7
2019-06-26T21:44:42.241Z,96144.7
2019-06-26T21:49:39.235Z,96144.3
2019-06-26T21:54:36.257Z,96071.5
2019-06-26T21:59:33.575Z,96143.6
2019-06-26T22:04:30.768Z,96069.2
2019-06-26T22:09:27.884Z,96141
2019-06-26T22:14:24.996Z,96135.1
2019-06-26T22:19:22.701Z,96137
2019-06-26T22:24:19.533Z,96133.5
2019-06-26T22:29:16.907Z,96133
2019-06-26T22:34:11.300Z,96130.3
2019-06-26T22:39:09.154Z,96126.2
2019-06-26T22:44:06.131Z,96127.2
2019-06-26T22:49:03.119Z,96126
2019-06-26T22:54:00.326Z,96120.2
2019-06-26T22:58:57.561Z,96123.8
2019-06-26T23:03:54.447Z,96112.9
2019-06-26T23:08:52.011Z,96084
2019-06-26T23:13:49.010Z,96107.5
2019-06-26T23:18:46.319Z,96079.2
2019-06-26T23:23:43.502Z,96106.1
2019-06-26T23:28:40.907Z,96098.2
2019-06-26T23:33:38.159Z,96103.6
2019-06-26T23:38:35.423Z,96023.8
2019-06-26T23:43:32.916Z,96037.1
2019-06-26T23:48:30.033Z,96025.5
2019-06-26T23:53:27.258Z,96020.1
2019-06-26T23:58:24.790Z,96086
